Latest Coastal Weather Observations for Hobart

IDT60701

Issued at 2:32 pm EST Tuesday 26 July 2016 (issued every 10 minutes, with the page automatically refreshed every 10 minutes)

About coastal observations | Map of coastal stations | Coastal observations for TAS | Marine services | Other Formats
Station Details ID: 094029 Name: HOBART (ELLERSLIE ROAD) Lat: -42.89 Lon: 147.33 Height: 50.5 m
Data from the previous 72 hours. | See also: Recent months at Hobart
Date/Time
EST
Temp
°C
Wind Pressure Rain since
9am
mm
Weather Cloud Vis
km
Sea
Height
m
Swell
Dir  Spd
kts
Gust
kts
hPa Trend Height
m
Period
s
Dir
26/02:30pm 9.3 NW 12 17 998.2 - 0.2 - - - - - - -
26/02:00pm 8.7 NW 17 30 997.8 - 0.2 - - - - - - -
26/01:30pm 9.1 NW 19 31 997.4 - 0.2 - - - - - - -
26/01:00pm 8.8 NW 17 27 997.2 - 0.2 - - - - - - -
26/12:34pm 9.8 NW 16 30 997.1 - 0.2 - - - - - - -
26/12:30pm 10.1 NW 13 24 997.1 - 0.2 - - - - - - -
26/12:00pm 9.2 NW 19 31 996.8 - 0.2 - - - - - - -
26/11:30am 8.4 WNW 17 31 996.6 - 0.2 - - - - - - -
26/11:00am 7.6 WNW 20 33 997.0 - 0.2 - - - - - - -
26/10:31am 7.3 NW 19 30 997.2 - 0.2 - - - - - - -
26/10:30am 7.3 NW 19 27 997.2 - 0.2 - - - - - - -
26/10:19am 7.0 NW 18 30 997.3 - 0.2 - - - - - - -
26/10:00am 6.0 NW 17 26 997.3 - 0.0 - - - - - - -
26/09:45am 6.1 NW 16 26 997.3 - 0.0 - - - - - - -
26/09:30am 6.5 NW 17 26 997.2 - 0.0 - - - - - - -
26/09:07am 5.9 NW 16 28 996.7 - 0.0 - - - - - - -
26/09:00am 5.1 NW 14 18 996.8 - 10.8 Rain - - - - - -
26/08:30am 5.1 NW 13 19 996.9 - 10.6 - - - - - - -
26/08:00am 4.7 NW 17 24 996.0 - 10.6 - - - - - - -
26/07:36am 4.4 NW 15 25 995.7 - 10.6 - - - - - - -
26/07:30am 4.4 NW 17 24 995.4 - 10.6 - - - - - - -
26/07:00am 4.2 NW 14 19 994.7 - 10.6 - - - - - - -
26/06:30am 4.0 NW 10 13 994.6 - 10.6 - - - - - - -
26/06:00am 4.3 NW 11 16 994.1 - 9.8 Recent precip. - - - - - -
26/05:30am 4.2 NW 13 23 993.3 - 9.6 - - - - - - -
26/05:00am 4.2 NW 10 17 992.7 - 8.8 - - - - - - -
26/04:30am 4.3 NW 14 21 992.4 - 7.6 - - - - - - -
26/04:03am 4.3 NW 15 25 991.8 - 6.4 - - - - - - -
26/04:00am 4.2 NW 17 25 991.7 - 6.4 - - - - - - -
26/03:30am 4.4 NW 14 20 990.9 - 6.0 - - - - - - -
26/03:00am 4.3 NW 15 23 990.9 - 4.4 Rain - - - - - -
26/02:30am 4.0 NW 16 22 990.7 - 4.0 - - - - - - -
26/02:00am 3.9 NW 16 22 990.5 - 3.6 - - - - - - -
26/01:30am 4.9 NW 16 28 989.9 - 2.0 - - - - - - -
26/01:00am 5.1 NW 17 27 989.5 - 1.6 - - - - - - -
26/12:30am 5.5 NW 19 31 988.6 - 1.2 - - - - - - -
26/12:00am 5.3 NW 15 25 988.6 - 1.0 Rain - - - - - -
 
Date/Time
EST
Temp
°C
Wind Pressure Rain since
9am
mm
Weather Cloud Vis
km
Sea
Height
m
Swell
Dir  Spd
kts
Gust
kts
hPa Trend Height
m
Period
s
Dir
25/11:43pm 5.6 NW 16 26 988.8 - 0.6 - - - - - - -
25/11:30pm 5.8 NNW 15 24 988.6 - 0.6 - - - - - - -
25/11:00pm 6.9 NW 16 25 988.1 - 0.4 - - - - - - -
25/10:41pm 7.1 NW 16 27 987.6 - 0.4 - - - - - - -
25/10:30pm 7.5 NNW 14 22 987.4 - 0.4 - - - - - - -
25/10:00pm 7.5 NW 16 26 986.9 - 0.4 - - - - - - -
25/09:30pm 8.2 NW 20 32 986.8 - 0.4 - - - - - - -
25/09:02pm 8.9 NNW 20 30 985.6 - 0.4 - - - - - - -
25/09:00pm 8.8 NNW 20 29 985.5 - 0.4 Recent precip. - - - - - -
25/08:31pm 9.4 NNW 17 27 985.8 - 0.4 - - - - - - -
25/08:30pm 9.3 NNW 17 25 985.8 - 0.4 - - - - - - -
25/08:26pm 9.2 NNW 15 25 985.9 - 0.4 - - - - - - -
25/08:00pm 9.3 NNW 12 17 986.7 - 0.0 - - - - - - -
25/07:30pm 9.6 NNW 13 19 987.2 - 0.0 - - - - - - -
25/07:00pm 8.8 N 11 18 988.3 - 0.0 - - - - - - -
25/06:30pm 8.2 NNW 7 11 989.0 - 0.0 - - - - - - -
25/06:00pm 8.6 N 5 9 989.7 - 0.0 - - - - - - -
25/05:30pm 8.7 N 6 9 990.9 - 0.0 - - - - - - -
25/05:00pm 9.7 N 7 10 991.6 - 0.0 - - - - - - -
25/04:30pm 10.5 NW 12 17 991.8 - 0.0 - - - - - - -
25/04:00pm 11.2 NNW 13 20 992.6 - 0.0 - - - - - - -
25/03:30pm 11.6 NNW 11 17 993.4 - 0.0 - - - - - - -
25/03:00pm 11.4 NNW 8 12 994.2 - 0.0 - - - - - - -
25/02:30pm 11.7 NW 11 16 994.5 - 0.0 - - - - - - -
25/02:00pm 11.3 NW 13 18 994.9 - 0.0 - - - - - - -
25/01:30pm 11.2 NNW 15 21 995.4 - 0.0 - - - - - - -
25/01:00pm 11.1 NNW 14 19 995.8 - 0.0 - - - - - - -
25/12:30pm 10.6 NNW 16 23 996.2 - 0.0 - - - - - - -
25/12:00pm 10.4 NNW 16 23 996.8 - 0.0 - - - - - - -
25/11:30am 10.1 NNW 15 20 997.4 - 0.0 - - - - - - -
25/11:00am 9.3 NNW 14 19 997.6 - 0.0 - - - - - - -
25/10:30am 7.5 NNW 14 19 997.8 - 0.0 - - - - - - -
25/10:00am 6.0 NNW 10 15 998.2 - 0.0 - - - - - - -
25/09:30am 5.3 NNW 8 12 998.4 - 0.0 - - - - - - -
25/09:00am 3.8 NNW 11 15 998.4 - 0.0 - - - - - - -
25/08:30am 3.5 NNW 12 15 998.6 - 0.0 - - - - - - -
25/08:00am 3.6 NW 9 12 998.7 - 0.0 - - - - - - -
25/07:30am 3.2 NW 11 14 998.7 - 0.0 - - - - - - -
25/07:00am 3.1 NNW 11 15 998.5 - 0.0 - - - - - - -
25/06:30am 2.9 NNW 11 16 998.7 - 0.0 - - - - - - -
25/06:00am 3.2 NNW 10 15 998.7 - 0.0 - - - - - - -
25/05:30am 3.0 NNW 11 15 998.7 - 0.0 - - - - - - -
25/05:00am 3.0 NNW 11 15 998.9 - 0.0 - - - - - - -
25/04:30am 3.1 N 9 12 999.0 - 0.0 - - - - - - -
25/04:00am 3.5 NNW 9 15 999.0 - 0.0 - - - - - - -
25/03:30am 3.5 N 8 12 999.1 - 0.0 - - - - - - -
25/03:00am 3.5 N 9 14 999.3 - 0.0 - - - - - - -
25/02:30am 3.9 NNW 11 16 999.7 - 0.0 - - - - - - -
25/02:00am 3.8 N 5 7 999.6 - 0.0 - - - - - - -
25/01:30am 4.6 NNW 5 8 999.9 - 0.0 - - - - - - -
25/01:00am 4.8 NW 9 12 1000.0 - 0.0 - - - - - - -
25/12:30am 3.3 W 4 7 1000.2 - 0.0 - - - - - - -
25/12:00am 3.5 NNW 7 11 1000.4 - 0.0 - - - - - - -
 
Date/Time
EST
Temp
°C
Wind Pressure Rain since
9am
mm
Weather Cloud Vis
km
Sea
Height
m
Swell
Dir  Spd
kts
Gust
kts
hPa Trend Height
m
Period
s
Dir
24/11:30pm 4.3 NNW 13 19 1000.6 - 0.0 - - - - - - -
24/11:00pm 3.1 NW 5 7 1000.8 - 0.0 - - - - - - -
24/10:30pm 3.3 WSW 4 5 1001.1 - 0.0 - - - - - - -
24/10:00pm 3.2 NNW 1 3 1001.4 - 0.0 - - - - - - -
24/09:30pm 3.4 NW 4 6 1001.6 - 0.0 - - - - - - -
24/09:00pm 4.0 NNW 6 9 1001.8 - 0.0 - - - - - - -
24/08:30pm 3.7 CALM 0 4 1001.9 - 0.0 - - - - - - -
24/08:00pm 3.8 WNW 4 5 1002.2 - 0.0 - - - - - - -
24/07:30pm 4.4 NW 5 6 1002.2 - 0.0 - - - - - - -
24/07:00pm 4.4 NW 4 6 1002.3 - 0.0 - - - - - - -
24/06:30pm 5.6 N 2 4 1002.4 - 0.0 - - - - - - -
24/06:00pm 5.8 ENE 2 5 1002.3 - 0.0 - - - - - - -
24/05:30pm 6.7 CALM 0 3 1002.3 - 0.0 - - - - - - -
24/05:00pm 7.1 NW 4 6 1002.3 - 0.0 - - - - - - -
24/04:30pm 8.2 N 7 10 1002.2 - 0.0 - - - - - - -
24/04:00pm 8.7 NNW 8 12 1002.5 - 0.0 - - - - - - -
24/03:30pm 9.1 NW 9 14 1002.6 - 0.0 - - - - - - -
24/03:00pm 8.8 NW 9 14 1002.7 - 0.0 - - - - - - -
24/02:30pm 9.5 NNW 10 13 1002.6 - 0.0 - - - - - - -
24/02:00pm 9.2 NNW 10 15 1002.7 - 0.0 - - - - - - -
24/01:30pm 9.0 N 11 15 1003.0 - 0.0 - - - - - - -
24/01:00pm 8.6 NNW 13 19 1003.4 - 0.0 - - - - - - -
24/12:30pm 8.6 NNW 13 22 1003.9 - 0.0 - - - - - - -
24/12:00pm 8.2 N 10 16 1004.2 - 0.0 - - - - - - -
24/11:30am 6.8 NNW 14 20 1004.5 - 0.0 - - - - - - -
24/11:00am 7.1 NNW 11 15 1004.6 - 0.0 - - - - - - -
24/10:30am 6.4 NNW 11 16 1004.8 - 0.0 - - - - - - -
24/10:00am 6.1 N 9 13 1004.8 - 0.0 - - - - - - -
24/09:30am 5.2 N 13 20 1004.8 - 0.0 - - - - - - -
24/09:00am 4.7 N 5 10 1005.1 - 6.0 - - - - - - -
24/08:30am 4.2 ENE 6 8 1005.1 - 6.0 - - - - - - -
24/08:00am 3.0 SW 5 8 1004.9 - 6.0 - - - - - - -
24/07:30am 3.6 NW 7 11 1004.7 - 6.0 - - - - - - -
24/07:00am 3.9 NW 13 20 1004.4 - 6.0 - - - - - - -
24/06:30am 3.6 NW 11 17 1004.0 - 6.0 - - - - - - -
24/06:00am 3.7 NW 13 19 1004.0 - 6.0 - - - - - - -
24/05:30am 3.3 NW 13 19 1003.9 - 6.0 - - - - - - -
24/05:00am 3.3 NNW 13 17 1003.8 - 6.0 - - - - - - -
24/04:30am 3.2 NW 14 20 1004.1 - 6.0 - - - - - - -
24/04:00am 3.6 NW 14 21 1003.7 - 6.0 - - - - - - -
24/03:30am 3.2 NW 10 15 1003.6 - 6.0 - - - - - - -
24/03:00am 3.4 NNW 11 15 1003.8 - 6.0 - - - - - - -
24/02:30am 3.4 NW 13 19 1003.8 - 6.0 - - - - - - -
24/02:00am 3.3 NNW 12 17 1003.8 - 6.0 - - - - - - -
24/01:30am 3.2 NNW 11 18 1003.6 - 6.0 - - - - - - -
24/01:00am 3.0 NNW 9 14 1003.5 - 6.0 - - - - - - -
24/12:30am 3.1 NW 8 14 1003.6 - 6.0 - - - - - - -
24/12:00am 3.4 NW 15 22 1003.3 - 6.0 - - - - - - -
 
Date/Time
EST
Temp
°C
Wind Pressure Rain since
9am
mm
Weather Cloud Vis
km
Sea
Height
m
Swell
Dir  Spd
kts
Gust
kts
hPa Trend Height
m
Period
s
Dir
23/11:30pm 2.8 NW 12 18 1002.9 - 6.0 - - - - - - -
23/11:00pm 3.4 WNW 7 14 1003.1 - 6.0 - - - - - - -
23/10:30pm 3.0 NNW 9 15 1002.9 - 6.0 - - - - - - -
23/10:00pm 2.2 NNE 5 9 1002.8 - 6.0 - - - - - - -
23/09:30pm 2.1 N 4 7 1002.1 - 6.0 - - - - - - -
23/09:00pm 2.4 W 8 15 1002.0 - 6.0 Rain - - - - - -
23/08:30pm 2.8 SW 12 19 1001.1 - 5.6 - - - - - - -
23/08:00pm 2.8 SW 19 33 1001.1 - 5.2 - - - - - - -
23/07:48pm 4.3 WSW 15 27 1000.4 - 4.8 - - - - - - -
23/07:30pm 3.6 W 10 16 999.8 - 4.8 - - - - - - -
23/07:13pm 4.0 WSW 14 30 999.7 - 4.8 - - - - - - -
23/07:08pm 3.9 WSW 11 24 999.6 - 4.8 - - - - - - -
23/07:00pm 3.2 WNW 9 13 999.2 - 4.8 - - - - - - -
23/06:37pm 3.5 SW 12 31 999.0 - 4.6 - - - - - - -
23/06:30pm 3.8 SW 7 15 998.8 - 4.4 - - - - - - -
23/06:00pm 3.5 SW 13 21 998.0 - 4.4 Recent precip. - - - - - -
23/05:30pm 3.5 WSW 8 16 996.8 - 4.4 - - - - - - -
23/05:00pm 3.6 SW 15 25 996.9 - 4.0 - - - - - - -
23/04:30pm 3.3 SW 11 17 995.6 - 3.8 - - - - - - -
23/04:14pm 3.2 WSW 14 23 995.5 - 3.6 - - - - - - -
23/04:00pm 3.7 W 9 15 994.8 - 3.4 - - - - - - -
23/03:30pm 2.7 WNW 6 9 994.1 - 3.2 - - - - - - -
23/03:00pm 4.8 SW 15 25 993.3 - 2.0 - - - - - - -

Other Formats:

Comma delimited format used in spreadsheet applications
http://www.bom.gov.au/fwo/IDT60701/IDT60701.94970.axf

JavaScript Object Notation format (JSON) in row-major order
http://www.bom.gov.au/fwo/IDT60701/IDT60701.94970.json